Nearby METAR Reports

 

KCNI - Canton/Cherokee, Georgia, USA
Distance from station: S 22mi, 36km
Updated: Fri, Feb-23-2018 6:55pm EST
Overcast
Overcast
 Wind from ESE
Wind: ESE 3 mph , 6 km/h
Temperature: 73°F , 23°C
Dew Point: 57°F , 14°C
Humidity: 57%
Barometer: 30.29 inHg , 1025.7 hPa
Clouds: Overcast
Visibility: 10 miles , 16 km
Cloud details: Mostly cloudy 6500 ft
Overcast 8000 ft
2018/02/23 23:55 KCNI 232355Z AUTO 12003KT 10SM BKN065 OVC080 23/14 A3029 RMK AO2
KDNN - Dalton, Georgia, USA
Distance from station: WNW 24mi, 39km
Updated: Fri, Feb-23-2018 7:15pm EST
Clear
Clear
 Wind from calm
Wind: Calm
Temperature: 72°F , 22°C
Dew Point: 59°F , 15°C
Humidity: 65%
Barometer: 30.26 inHg , 1024.7 hPa
Clouds: Clear
Visibility: 10 miles , 16 km
2018/02/24 00:15 KDNN 240015Z AUTO 00000KT 10SM CLR 22/15 A3026 RMK AO2
 
KVPC - Cartersville, Georgia, USA
Distance from station: SSW 42mi, 67km
Updated: Fri, Feb-23-2018 6:53pm EST
Clear
Clear
 Wind from SSE
Wind: SSE 3 mph , 6 km/h
Temperature: 66°F , 19°C
Dew Point: 61°F , 16°C
Humidity: 83%
Barometer: 30.25 inHg , 1024.4 hPa
Clouds: Clear
Visibility: 10 miles , 16 km
2018/02/23 23:53 KVPC 232353Z AUTO 16003KT 10SM CLR 19/16 A3025 RMK AO2 SLP237 T01890161 10256 20189 56007
KGVL - Gainesville, Georgia, USA
Distance from station: SE 43mi, 70km
Updated: Fri, Feb-23-2018 6:53pm EST
Clear
Clear
 Wind from SE
Wind: SE 5 mph , 7 km/h
Temperature: 70°F , 21°C
Dew Point: 57°F , 14°C
Humidity: 64%
Barometer: 30.31 inHg , 1026.4 hPa
Clouds: Clear
Visibility: 10 miles , 16 km
2018/02/23 23:53 KGVL 232353Z AUTO 13004KT 10SM CLR 21/14 A3031 RMK AO2 SLP257 T02110139 10244 20211 56006
 
KRYY - Marietta Mccolum, Georgia, USA
Distance from station: S 44mi, 70km
Updated: Fri, Feb-23-2018 6:48pm EST
Mostly cloudy
Mostly cloudy
 Wind from SE
Wind: SE 3 mph , 6 km/h
Temperature: 72°F , 22°C
Dew Point: 57°F , 14°C
Humidity: 61%
Barometer: 30.27 inHg , 1025.1 hPa
Clouds: Mostly cloudy
Visibility: 10 miles , 16 km
Cloud details: Mostly cloudy 6500 ft
2018/02/23 23:48 KRYY 232348Z 13003KT 10SM BKN065 22/14 A3027 RMK AO2 SLP970 T02220144 10256 20222 56009
KRMG - Rome, Georgia, USA
Distance from station: WSW 45mi, 73km
Updated: Fri, Feb-23-2018 6:53pm EST
Clear
Clear
 Wind from SE
Wind: SE 5 mph , 7 km/h
Temperature: 73°F , 23°C
Dew Point: 61°F , 16°C
Humidity: 65%
Barometer: 30.23 inHg , 1023.7 hPa
Clouds: Clear
Visibility: 10 miles , 16 km
2018/02/23 23:53 KRMG 232353Z AUTO 14004KT 10SM CLR 23/16 A3023 RMK AO2 SLP230 T02280156 10278 20228 55004
 
KMGE - Dobbins Afb/Mari, Georgia, USA
Distance from station: S 50mi, 80km
Updated: Fri, Feb-23-2018 6:56pm EST
Mostly cloudy
Mostly cloudy
 Wind from SSE
Wind: SSE 5 mph , 7 km/h
Temperature: 73°F , 23°C
Dew Point: 57°F , 14°C
Humidity: 57%
Barometer: 30.26 inHg , 1024.7 hPa
Clouds: Mostly cloudy
Visibility: 10 miles , 16 km
Cloud details: Few Clouds 5500 ft
Mostly cloudy 7000 ft
Mostly cloudy 25000 ft
2018/02/23 23:56 KMGE 232356Z 15004KT 10SM FEW055 BKN070 BKN250 23/14 A3026 RMK AO2A SLP243 T02290136 10254 20229 55009 $